Morgantown, WV

10:43 PM EDT on September 04, 2015 (GMT -0400)
Brooks green roof | | Change Station
CLOSE
Current Station
Personal Weather Station
Location: Morgantown, WV
Elevation: 873 ft
Nearby Weather Stations

Elev 873 ft 39.64 °N, 79.96 °W | Updated 8 minutes ago

Overcast
Overcast
71.1 °F
Feels Like 71.1 °F
N
0.0
Wind Variable Wind from SSW
Gusts 0.0 mph

Today
High -- | Low -- °F
--% Chance of Precip.
Yesterday
High -- | Low -- °F
Precip. -- in
6:51 AM 7:47 PM
Waning Gibbous, 53% visible
Pressure 30.12 in
Visibility 9.0 miles
Clouds Clear
Dew Point 66 °F
Humidity 85%
Rainfall 0.42 in
Snow Depth Not available.
UV 0 out of 12
Pollen 9.30 out of 12
Air Quality Not available.
Flu Activity Not available.
METAR KMGW 050153Z 19003KT 9SM CLR 23/19 A3015 RMK AO2 SLP200 T02280189
Pressure 30.12 in
Visibility 9.0 miles
Clouds Clear
Dew Point 66 °F
Humidity 85%
Rainfall 0.42 in
Snow Depth Not available.
UV 0 out of 12
Pollen 9.30 out of 12
Air Quality Not available.
Flu Activity Not available.
METAR KMGW 050153Z 19003KT 9SM CLR 23/19 A3015 RMK AO2 SLP200 T02280189

10-Day Weather Forecast

×

Almanac

Astronomy

Sep. 04, 2015 Rise Set
Actual Time
Civil Twilight
Nautical Twilight
Astronomical Twilight
Moon
Length of Visible Light
Length of Day
Tomorrow will be .
, % of the Moon is Illuminated

Today's Extremes

State Highs State Lows

Community

WunderPhotos

Upload Photos

1,852,392 photos uploaded!

WunderBlogs® & News

Nearby

Air Quality

  Air Quality AQ Index Pollutant
Not available.

Snow Depth

Station Depth Elevation

Earthquake Activity

City Distance Mag. Time & Date
Minimum magnitude displayed is 2.5.

Coastal Water Temperatures

Place Temperature

Stations

Nearby Weather Stations

Station Location Temp. Windchill Dew Point Humidity Wind Precip. Elev Updated Type